sensor_id;sensor_type;location;lat;lon;timestamp;P1;durP1;ratioP1;P2;durP2;ratioP2
19127;SDS011;9696;53.686;10.094;2023-08-06T00:01:39;3.92;;;1.40;;
19127;SDS011;9696;53.686;10.094;2023-08-06T00:04:10;2.42;;;1.30;;
19127;SDS011;9696;53.686;10.094;2023-08-06T00:06:47;1.90;;;1.50;;
19127;SDS011;9696;53.686;10.094;2023-08-06T00:09:23;6.50;;;1.42;;
19127;SDS011;9696;53.686;10.094;2023-08-06T00:12:05;2.67;;;1.48;;
19127;SDS011;9696;53.686;10.094;2023-08-06T00:14:37;2.25;;;1.70;;
19127;SDS011;9696;53.686;10.094;2023-08-06T00:17:13;24.17;;;11.55;;
19127;SDS011;9696;53.686;10.094;2023-08-06T00:19:58;10.35;;;4.90;;
19127;SDS011;9696;53.686;10.094;2023-08-06T00:22:38;3.05;;;2.22;;
19127;SDS011;9696;53.686;10.094;2023-08-06T00:25:11;3.13;;;1.90;;
19127;SDS011;9696;53.686;10.094;2023-08-06T00:27:50;1.45;;;1.30;;
19127;SDS011;9696;53.686;10.094;2023-08-06T00:30:26;3.95;;;1.30;;
19127;SDS011;9696;53.686;10.094;2023-08-06T00:32:59;4.70;;;1.73;;
19127;SDS011;9696;53.686;10.094;2023-08-06T00:35:32;3.92;;;1.70;;
19127;SDS011;9696;53.686;10.094;2023-08-06T00:38:07;2.60;;;1.65;;
19127;SDS011;9696;53.686;10.094;2023-08-06T00:40:45;3.75;;;1.48;;
19127;SDS011;9696;53.686;10.094;2023-08-06T00:43:18;2.47;;;1.77;;
19127;SDS011;9696;53.686;10.094;2023-08-06T00:45:50;3.22;;;1.70;;
19127;SDS011;9696;53.686;10.094;2023-08-06T00:48:27;4.35;;;1.90;;
19127;SDS011;9696;53.686;10.094;2023-08-06T00:51:01;3.67;;;2.00;;
19127;SDS011;9696;53.686;10.094;2023-08-06T00:53:38;1.88;;;1.60;;
19127;SDS011;9696;53.686;10.094;2023-08-06T00:56:20;2.88;;;2.13;;
19127;SDS011;9696;53.686;10.094;2023-08-06T00:59:00;2.40;;;1.83;;
19127;SDS011;9696;53.686;10.094;2023-08-06T01:01:36;2.78;;;1.80;;
19127;SDS011;9696;53.686;10.094;2023-08-06T01:04:14;2.90;;;2.05;;
19127;SDS011;9696;53.686;10.094;2023-08-06T01:06:51;2.53;;;1.85;;
19127;SDS011;9696;53.686;10.094;2023-08-06T01:09:42;5.38;;;2.20;;
19127;SDS011;9696;53.686;10.094;2023-08-06T01:12:50;9.18;;;2.40;;
19127;SDS011;9696;53.686;10.094;2023-08-06T01:15:38;4.07;;;1.75;;
19127;SDS011;9696;53.686;10.094;2023-08-06T01:18:20;2.33;;;1.92;;
19127;SDS011;9696;53.686;10.094;2023-08-06T01:21:21;4.85;;;1.88;;
19127;SDS011;9696;53.686;10.094;2023-08-06T01:23:52;3.13;;;2.15;;
19127;SDS011;9696;53.686;10.094;2023-08-06T01:26:30;3.15;;;2.30;;
19127;SDS011;9696;53.686;10.094;2023-08-06T01:29:12;3.20;;;2.33;;
19127;SDS011;9696;53.686;10.094;2023-08-06T01:32:02;4.80;;;2.65;;
19127;SDS011;9696;53.686;10.094;2023-08-06T01:35:02;3.15;;;2.38;;
19127;SDS011;9696;53.686;10.094;2023-08-06T01:37:44;3.53;;;2.45;;
19127;SDS011;9696;53.686;10.094;2023-08-06T01:40:19;3.08;;;2.42;;
19127;SDS011;9696;53.686;10.094;2023-08-06T01:42:56;3.05;;;2.15;;
19127;SDS011;9696;53.686;10.094;2023-08-06T01:45:40;5.68;;;2.55;;
19127;SDS011;9696;53.686;10.094;2023-08-06T01:48:13;4.70;;;2.45;;
19127;SDS011;9696;53.686;10.094;2023-08-06T01:50:59;6.00;;;2.97;;
19127;SDS011;9696;53.686;10.094;2023-08-06T01:53:44;3.15;;;2.40;;
19127;SDS011;9696;53.686;10.094;2023-08-06T01:56:20;5.22;;;2.67;;
19127;SDS011;9696;53.686;10.094;2023-08-06T01:58:54;2.85;;;2.22;;
19127;SDS011;9696;53.686;10.094;2023-08-06T02:01:30;4.65;;;2.67;;
19127;SDS011;9696;53.686;10.094;2023-08-06T02:04:11;7.05;;;2.47;;
19127;SDS011;9696;53.686;10.094;2023-08-06T02:06:57;4.57;;;2.75;;
19127;SDS011;9696;53.686;10.094;2023-08-06T02:12:30;3.00;;;2.03;;
19127;SDS011;9696;53.686;10.094;2023-08-06T02:15:02;3.60;;;2.55;;
19127;SDS011;9696;53.686;10.094;2023-08-06T02:17:37;5.40;;;3.00;;
19127;SDS011;9696;53.686;10.094;2023-08-06T02:20:14;3.75;;;2.60;;
19127;SDS011;9696;53.686;10.094;2023-08-06T02:23:00;7.10;;;2.40;;
19127;SDS011;9696;53.686;10.094;2023-08-06T02:25:36;3.35;;;2.60;;
19127;SDS011;9696;53.686;10.094;2023-08-06T02:28:10;5.75;;;2.47;;
19127;SDS011;9696;53.686;10.094;2023-08-06T02:30:50;9.53;;;2.30;;
19127;SDS011;9696;53.686;10.094;2023-08-06T02:33:24;3.65;;;2.55;;
19127;SDS011;9696;53.686;10.094;2023-08-06T02:36:00;2.97;;;2.30;;
19127;SDS011;9696;53.686;10.094;2023-08-06T02:38:42;6.25;;;2.53;;
19127;SDS011;9696;53.686;10.094;2023-08-06T02:41:20;5.47;;;2.80;;
19127;SDS011;9696;53.686;10.094;2023-08-06T02:43:59;4.47;;;2.70;;
19127;SDS011;9696;53.686;10.094;2023-08-06T02:46:35;3.67;;;2.40;;
19127;SDS011;9696;53.686;10.094;2023-08-06T02:49:06;4.57;;;2.80;;
19127;SDS011;9696;53.686;10.094;2023-08-06T02:51:48;3.80;;;2.83;;
19127;SDS011;9696;53.686;10.094;2023-08-06T02:54:23;5.28;;;2.72;;
19127;SDS011;9696;53.686;10.094;2023-08-06T02:57:04;4.77;;;2.33;;
19127;SDS011;9696;53.686;10.094;2023-08-06T02:59:51;4.95;;;2.92;;
19127;SDS011;9696;53.686;10.094;2023-08-06T03:02:31;6.13;;;2.77;;
19127;SDS011;9696;53.686;10.094;2023-08-06T03:05:30;4.05;;;2.78;;
19127;SDS011;9696;53.686;10.094;2023-08-06T03:08:00;6.43;;;3.15;;
19127;SDS011;9696;53.686;10.094;2023-08-06T03:10:30;4.15;;;2.90;;
19127;SDS011;9696;53.686;10.094;2023-08-06T03:13:03;5.67;;;2.50;;
19127;SDS011;9696;53.686;10.094;2023-08-06T03:15:33;5.38;;;2.70;;
19127;SDS011;9696;53.686;10.094;2023-08-06T03:18:08;4.03;;;2.72;;
19127;SDS011;9696;53.686;10.094;2023-08-06T03:20:37;3.88;;;2.58;;
19127;SDS011;9696;53.686;10.094;2023-08-06T03:23:07;4.88;;;2.97;;
19127;SDS011;9696;53.686;10.094;2023-08-06T03:25:36;4.07;;;2.60;;
19127;SDS011;9696;53.686;10.094;2023-08-06T03:28:07;8.35;;;2.97;;
19127;SDS011;9696;53.686;10.094;2023-08-06T03:30:37;5.93;;;2.78;;
19127;SDS011;9696;53.686;10.094;2023-08-06T03:33:09;7.95;;;2.90;;
19127;SDS011;9696;53.686;10.094;2023-08-06T03:35:39;4.82;;;2.65;;
19127;SDS011;9696;53.686;10.094;2023-08-06T03:38:08;6.82;;;2.70;;
19127;SDS011;9696;53.686;10.094;2023-08-06T03:40:37;4.33;;;2.70;;
19127;SDS011;9696;53.686;10.094;2023-08-06T03:43:07;8.45;;;3.03;;
19127;SDS011;9696;53.686;10.094;2023-08-06T03:45:37;16.47;;;3.10;;
19127;SDS011;9696;53.686;10.094;2023-08-06T03:48:06;4.37;;;2.57;;
19127;SDS011;9696;53.686;10.094;2023-08-06T03:50:35;7.90;;;3.07;;
19127;SDS011;9696;53.686;10.094;2023-08-06T03:53:05;3.55;;;2.33;;
19127;SDS011;9696;53.686;10.094;2023-08-06T03:55:34;3.50;;;2.70;;
19127;SDS011;9696;53.686;10.094;2023-08-06T03:58:03;5.77;;;2.73;;
19127;SDS011;9696;53.686;10.094;2023-08-06T04:00:33;4.82;;;2.80;;
19127;SDS011;9696;53.686;10.094;2023-08-06T04:03:02;7.75;;;2.83;;
19127;SDS011;9696;53.686;10.094;2023-08-06T04:05:32;7.60;;;3.03;;
19127;SDS011;9696;53.686;10.094;2023-08-06T04:08:01;5.22;;;2.70;;
19127;SDS011;9696;53.686;10.094;2023-08-06T04:10:30;7.23;;;3.00;;
19127;SDS011;9696;53.686;10.094;2023-08-06T04:13:00;10.93;;;2.90;;
19127;SDS011;9696;53.686;10.094;2023-08-06T04:15:29;8.20;;;3.08;;
19127;SDS011;9696;53.686;10.094;2023-08-06T04:18:02;6.43;;;2.70;;
19127;SDS011;9696;53.686;10.094;2023-08-06T04:20:31;5.50;;;3.10;;
19127;SDS011;9696;53.686;10.094;2023-08-06T04:23:05;5.47;;;2.60;;
19127;SDS011;9696;53.686;10.094;2023-08-06T04:25:35;7.03;;;2.90;;
19127;SDS011;9696;53.686;10.094;2023-08-06T04:28:05;4.87;;;2.93;;
19127;SDS011;9696;53.686;10.094;2023-08-06T04:30:34;8.45;;;2.55;;
19127;SDS011;9696;53.686;10.094;2023-08-06T04:33:06;6.13;;;3.25;;
19127;SDS011;9696;53.686;10.094;2023-08-06T04:35:36;6.23;;;3.00;;
19127;SDS011;9696;53.686;10.094;2023-08-06T04:38:05;7.25;;;3.05;;
19127;SDS011;9696;53.686;10.094;2023-08-06T04:40:34;6.37;;;3.13;;
19127;SDS011;9696;53.686;10.094;2023-08-06T04:43:04;5.05;;;2.85;;
19127;SDS011;9696;53.686;10.094;2023-08-06T04:45:34;9.43;;;3.10;;
19127;SDS011;9696;53.686;10.094;2023-08-06T04:48:03;4.85;;;2.55;;
19127;SDS011;9696;53.686;10.094;2023-08-06T04:50:34;3.67;;;2.55;;
19127;SDS011;9696;53.686;10.094;2023-08-06T04:53:03;4.00;;;2.53;;
19127;SDS011;9696;53.686;10.094;2023-08-06T04:55:32;9.48;;;2.80;;
19127;SDS011;9696;53.686;10.094;2023-08-06T04:58:01;9.63;;;3.45;;
19127;SDS011;9696;53.686;10.094;2023-08-06T05:00:30;6.30;;;3.00;;
19127;SDS011;9696;53.686;10.094;2023-08-06T05:03:00;8.73;;;3.10;;
19127;SDS011;9696;53.686;10.094;2023-08-06T05:05:30;5.38;;;3.20;;
19127;SDS011;9696;53.686;10.094;2023-08-06T05:08:01;8.73;;;3.63;;
19127;SDS011;9696;53.686;10.094;2023-08-06T05:10:30;5.93;;;3.05;;
19127;SDS011;9696;53.686;10.094;2023-08-06T05:12:59;4.50;;;2.55;;
19127;SDS011;9696;53.686;10.094;2023-08-06T05:15:29;6.10;;;3.20;;
19127;SDS011;9696;53.686;10.094;2023-08-06T05:17:58;5.70;;;2.80;;
19127;SDS011;9696;53.686;10.094;2023-08-06T05:20:27;8.43;;;3.00;;
19127;SDS011;9696;53.686;10.094;2023-08-06T05:22:56;5.03;;;2.88;;
19127;SDS011;9696;53.686;10.094;2023-08-06T05:25:27;5.20;;;3.45;;
19127;SDS011;9696;53.686;10.094;2023-08-06T05:27:56;7.35;;;2.97;;
19127;SDS011;9696;53.686;10.094;2023-08-06T05:30:25;5.60;;;2.83;;
19127;SDS011;9696;53.686;10.094;2023-08-06T05:32:54;4.85;;;3.10;;
19127;SDS011;9696;53.686;10.094;2023-08-06T05:35:23;5.65;;;2.97;;
19127;SDS011;9696;53.686;10.094;2023-08-06T05:37:53;4.80;;;2.90;;
19127;SDS011;9696;53.686;10.094;2023-08-06T05:40:22;6.00;;;3.38;;
19127;SDS011;9696;53.686;10.094;2023-08-06T05:42:54;8.15;;;3.22;;
19127;SDS011;9696;53.686;10.094;2023-08-06T05:45:23;6.70;;;3.10;;
19127;SDS011;9696;53.686;10.094;2023-08-06T05:47:52;10.23;;;3.30;;
19127;SDS011;9696;53.686;10.094;2023-08-06T05:50:24;4.28;;;3.13;;
19127;SDS011;9696;53.686;10.094;2023-08-06T05:52:53;5.18;;;3.25;;
19127;SDS011;9696;53.686;10.094;2023-08-06T05:55:26;4.43;;;3.50;;
19127;SDS011;9696;53.686;10.094;2023-08-06T05:57:56;7.70;;;3.42;;
19127;SDS011;9696;53.686;10.094;2023-08-06T06:00:26;11.30;;;3.80;;
19127;SDS011;9696;53.686;10.094;2023-08-06T06:02:55;6.00;;;3.15;;
19127;SDS011;9696;53.686;10.094;2023-08-06T06:05:24;6.90;;;3.08;;
19127;SDS011;9696;53.686;10.094;2023-08-06T06:07:54;5.10;;;3.50;;
19127;SDS011;9696;53.686;10.094;2023-08-06T06:10:23;6.45;;;3.33;;
19127;SDS011;9696;53.686;10.094;2023-08-06T06:12:52;5.60;;;3.35;;
19127;SDS011;9696;53.686;10.094;2023-08-06T06:15:22;6.47;;;3.85;;
19127;SDS011;9696;53.686;10.094;2023-08-06T06:17:52;7.35;;;3.40;;
19127;SDS011;9696;53.686;10.094;2023-08-06T06:20:21;3.90;;;3.15;;
19127;SDS011;9696;53.686;10.094;2023-08-06T06:22:50;11.02;;;3.33;;
19127;SDS011;9696;53.686;10.094;2023-08-06T06:25:19;3.55;;;2.55;;
19127;SDS011;9696;53.686;10.094;2023-08-06T06:27:48;7.63;;;3.05;;
19127;SDS011;9696;53.686;10.094;2023-08-06T06:30:17;7.28;;;3.47;;
19127;SDS011;9696;53.686;10.094;2023-08-06T06:32:48;8.73;;;3.40;;
19127;SDS011;9696;53.686;10.094;2023-08-06T06:35:17;3.97;;;2.88;;
19127;SDS011;9696;53.686;10.094;2023-08-06T06:37:46;6.07;;;3.22;;
19127;SDS011;9696;53.686;10.094;2023-08-06T06:40:16;6.35;;;3.35;;
19127;SDS011;9696;53.686;10.094;2023-08-06T06:42:45;6.72;;;3.42;;
19127;SDS011;9696;53.686;10.094;2023-08-06T06:45:15;8.15;;;3.78;;
19127;SDS011;9696;53.686;10.094;2023-08-06T06:47:45;6.15;;;3.67;;
19127;SDS011;9696;53.686;10.094;2023-08-06T06:50:15;4.57;;;3.08;;
19127;SDS011;9696;53.686;10.094;2023-08-06T06:52:44;8.23;;;3.88;;
19127;SDS011;9696;53.686;10.094;2023-08-06T06:55:13;6.15;;;3.45;;
19127;SDS011;9696;53.686;10.094;2023-08-06T06:57:43;5.57;;;3.33;;
19127;SDS011;9696;53.686;10.094;2023-08-06T07:00:12;7.88;;;4.00;;
19127;SDS011;9696;53.686;10.094;2023-08-06T07:02:42;5.13;;;3.42;;
19127;SDS011;9696;53.686;10.094;2023-08-06T07:05:11;5.97;;;3.05;;
19127;SDS011;9696;53.686;10.094;2023-08-06T07:07:41;5.22;;;3.20;;
19127;SDS011;9696;53.686;10.094;2023-08-06T07:10:11;13.40;;;3.70;;
19127;SDS011;9696;53.686;10.094;2023-08-06T07:12:40;9.95;;;3.83;;
19127;SDS011;9696;53.686;10.094;2023-08-06T07:15:09;10.25;;;3.47;;
19127;SDS011;9696;53.686;10.094;2023-08-06T07:17:38;9.75;;;3.72;;
19127;SDS011;9696;53.686;10.094;2023-08-06T07:20:08;5.80;;;3.25;;
19127;SDS011;9696;53.686;10.094;2023-08-06T07:22:38;5.75;;;3.63;;
19127;SDS011;9696;53.686;10.094;2023-08-06T07:25:08;14.80;;;3.47;;
19127;SDS011;9696;53.686;10.094;2023-08-06T07:27:38;6.20;;;3.70;;
19127;SDS011;9696;53.686;10.094;2023-08-06T07:30:07;7.32;;;3.72;;
19127;SDS011;9696;53.686;10.094;2023-08-06T07:32:36;4.93;;;3.00;;
19127;SDS011;9696;53.686;10.094;2023-08-06T07:35:06;6.65;;;3.72;;
19127;SDS011;9696;53.686;10.094;2023-08-06T07:37:39;6.55;;;3.55;;
19127;SDS011;9696;53.686;10.094;2023-08-06T07:40:10;9.10;;;3.60;;
19127;SDS011;9696;53.686;10.094;2023-08-06T07:42:40;7.93;;;3.75;;
19127;SDS011;9696;53.686;10.094;2023-08-06T07:45:09;9.43;;;3.85;;
19127;SDS011;9696;53.686;10.094;2023-08-06T07:47:38;12.25;;;3.90;;
19127;SDS011;9696;53.686;10.094;2023-08-06T07:50:08;5.68;;;3.58;;
19127;SDS011;9696;53.686;10.094;2023-08-06T07:52:37;7.30;;;3.40;;
19127;SDS011;9696;53.686;10.094;2023-08-06T07:55:06;4.78;;;2.83;;
19127;SDS011;9696;53.686;10.094;2023-08-06T07:57:37;7.72;;;3.33;;
19127;SDS011;9696;53.686;10.094;2023-08-06T08:00:06;9.32;;;3.22;;
19127;SDS011;9696;53.686;10.094;2023-08-06T08:02:40;7.50;;;4.03;;
19127;SDS011;9696;53.686;10.094;2023-08-06T08:05:10;6.88;;;3.63;;
19127;SDS011;9696;53.686;10.094;2023-08-06T08:07:39;8.65;;;3.15;;
19127;SDS011;9696;53.686;10.094;2023-08-06T08:10:08;14.73;;;7.50;;
19127;SDS011;9696;53.686;10.094;2023-08-06T08:12:39;6.82;;;4.07;;
19127;SDS011;9696;53.686;10.094;2023-08-06T08:15:08;8.02;;;3.70;;
19127;SDS011;9696;53.686;10.094;2023-08-06T08:17:37;6.88;;;2.78;;
19127;SDS011;9696;53.686;10.094;2023-08-06T08:20:07;7.82;;;3.63;;
19127;SDS011;9696;53.686;10.094;2023-08-06T08:22:36;5.88;;;3.17;;
19127;SDS011;9696;53.686;10.094;2023-08-06T08:25:05;6.28;;;3.17;;
19127;SDS011;9696;53.686;10.094;2023-08-06T08:27:35;8.70;;;3.47;;
19127;SDS011;9696;53.686;10.094;2023-08-06T08:30:06;11.00;;;3.78;;
19127;SDS011;9696;53.686;10.094;2023-08-06T08:32:36;7.07;;;3.20;;
19127;SDS011;9696;53.686;10.094;2023-08-06T08:35:05;3.80;;;3.00;;
19127;SDS011;9696;53.686;10.094;2023-08-06T08:37:35;7.07;;;3.33;;
19127;SDS011;9696;53.686;10.094;2023-08-06T08:40:05;5.82;;;3.20;;
19127;SDS011;9696;53.686;10.094;2023-08-06T08:42:35;11.15;;;3.55;;
19127;SDS011;9696;53.686;10.094;2023-08-06T08:45:09;7.47;;;3.20;;
19127;SDS011;9696;53.686;10.094;2023-08-06T08:47:41;7.32;;;3.08;;
19127;SDS011;9696;53.686;10.094;2023-08-06T08:50:11;6.70;;;3.28;;
19127;SDS011;9696;53.686;10.094;2023-08-06T08:52:41;5.82;;;3.10;;
19127;SDS011;9696;53.686;10.094;2023-08-06T08:55:13;5.85;;;3.45;;
19127;SDS011;9696;53.686;10.094;2023-08-06T08:57:43;6.75;;;3.70;;
19127;SDS011;9696;53.686;10.094;2023-08-06T09:00:14;6.45;;;4.00;;
19127;SDS011;9696;53.686;10.094;2023-08-06T09:02:44;8.20;;;3.50;;
19127;SDS011;9696;53.686;10.094;2023-08-06T09:05:14;9.77;;;3.55;;
19127;SDS011;9696;53.686;10.094;2023-08-06T09:07:46;10.65;;;3.55;;
19127;SDS011;9696;53.686;10.094;2023-08-06T09:10:17;7.85;;;3.85;;
19127;SDS011;9696;53.686;10.094;2023-08-06T09:12:48;5.88;;;2.95;;
19127;SDS011;9696;53.686;10.094;2023-08-06T09:15:22;6.28;;;3.63;;
19127;SDS011;9696;53.686;10.094;2023-08-06T09:17:53;10.05;;;3.90;;
19127;SDS011;9696;53.686;10.094;2023-08-06T09:20:23;2.80;;;2.50;;
19127;SDS011;9696;53.686;10.094;2023-08-06T09:22:52;6.70;;;3.33;;
19127;SDS011;9696;53.686;10.094;2023-08-06T09:25:22;7.82;;;3.70;;
19127;SDS011;9696;53.686;10.094;2023-08-06T09:27:53;9.63;;;3.35;;
19127;SDS011;9696;53.686;10.094;2023-08-06T09:30:30;4.72;;;3.38;;
19127;SDS011;9696;53.686;10.094;2023-08-06T09:33:00;6.68;;;3.30;;
19127;SDS011;9696;53.686;10.094;2023-08-06T09:35:29;5.47;;;2.92;;
19127;SDS011;9696;53.686;10.094;2023-08-06T09:38:05;5.20;;;2.78;;
19127;SDS011;9696;53.686;10.094;2023-08-06T09:40:36;21.27;;;4.30;;
19127;SDS011;9696;53.686;10.094;2023-08-06T09:43:05;8.05;;;3.75;;
19127;SDS011;9696;53.686;10.094;2023-08-06T09:45:36;5.75;;;3.88;;
19127;SDS011;9696;53.686;10.094;2023-08-06T09:48:07;3.72;;;3.20;;
19127;SDS011;9696;53.686;10.094;2023-08-06T09:50:37;10.98;;;3.53;;
19127;SDS011;9696;53.686;10.094;2023-08-06T09:53:09;11.68;;;4.15;;
19127;SDS011;9696;53.686;10.094;2023-08-06T09:55:39;5.63;;;3.00;;
19127;SDS011;9696;53.686;10.094;2023-08-06T09:58:08;8.82;;;3.92;;
19127;SDS011;9696;53.686;10.094;2023-08-06T10:00:39;5.60;;;3.58;;
19127;SDS011;9696;53.686;10.094;2023-08-06T10:03:08;9.10;;;3.60;;
19127;SDS011;9696;53.686;10.094;2023-08-06T10:05:40;9.02;;;4.00;;
19127;SDS011;9696;53.686;10.094;2023-08-06T10:08:14;12.27;;;4.15;;
19127;SDS011;9696;53.686;10.094;2023-08-06T10:10:43;6.88;;;3.78;;
19127;SDS011;9696;53.686;10.094;2023-08-06T10:13:13;9.55;;;4.43;;
19127;SDS011;9696;53.686;10.094;2023-08-06T10:15:47;7.18;;;4.30;;
19127;SDS011;9696;53.686;10.094;2023-08-06T10:18:17;5.15;;;3.50;;
19127;SDS011;9696;53.686;10.094;2023-08-06T10:20:49;5.80;;;4.05;;
19127;SDS011;9696;53.686;10.094;2023-08-06T10:23:18;12.88;;;4.55;;
19127;SDS011;9696;53.686;10.094;2023-08-06T10:25:53;9.68;;;4.55;;
19127;SDS011;9696;53.686;10.094;2023-08-06T10:28:24;10.15;;;4.22;;
19127;SDS011;9696;53.686;10.094;2023-08-06T10:31:04;8.18;;;3.95;;
19127;SDS011;9696;53.686;10.094;2023-08-06T10:33:41;7.93;;;3.63;;
19127;SDS011;9696;53.686;10.094;2023-08-06T10:36:11;6.50;;;3.53;;
19127;SDS011;9696;53.686;10.094;2023-08-06T10:38:44;6.97;;;3.53;;
19127;SDS011;9696;53.686;10.094;2023-08-06T10:41:15;8.20;;;3.88;;
19127;SDS011;9696;53.686;10.094;2023-08-06T10:43:46;6.85;;;3.78;;
19127;SDS011;9696;53.686;10.094;2023-08-06T10:46:27;6.00;;;4.05;;
19127;SDS011;9696;53.686;10.094;2023-08-06T10:48:56;9.90;;;4.28;;
19127;SDS011;9696;53.686;10.094;2023-08-06T10:51:25;7.93;;;3.85;;
19127;SDS011;9696;53.686;10.094;2023-08-06T10:53:55;8.65;;;4.18;;
19127;SDS011;9696;53.686;10.094;2023-08-06T10:56:25;9.48;;;4.00;;
19127;SDS011;9696;53.686;10.094;2023-08-06T10:58:54;8.50;;;4.20;;
19127;SDS011;9696;53.686;10.094;2023-08-06T11:01:28;7.63;;;4.10;;
19127;SDS011;9696;53.686;10.094;2023-08-06T11:04:00;5.82;;;4.00;;
19127;SDS011;9696;53.686;10.094;2023-08-06T11:06:32;5.72;;;4.03;;
19127;SDS011;9696;53.686;10.094;2023-08-06T11:09:01;5.78;;;4.07;;
19127;SDS011;9696;53.686;10.094;2023-08-06T11:11:30;6.85;;;3.85;;
19127;SDS011;9696;53.686;10.094;2023-08-06T11:13:59;8.68;;;4.30;;
19127;SDS011;9696;53.686;10.094;2023-08-06T11:16:30;13.57;;;4.50;;
19127;SDS011;9696;53.686;10.094;2023-08-06T11:18:59;7.90;;;4.13;;
19127;SDS011;9696;53.686;10.094;2023-08-06T11:21:28;8.18;;;3.92;;
19127;SDS011;9696;53.686;10.094;2023-08-06T11:23:59;8.98;;;3.97;;
19127;SDS011;9696;53.686;10.094;2023-08-06T11:26:28;9.85;;;3.85;;
19127;SDS011;9696;53.686;10.094;2023-08-06T11:28:57;7.25;;;4.20;;
19127;SDS011;9696;53.686;10.094;2023-08-06T11:31:26;5.57;;;4.05;;
19127;SDS011;9696;53.686;10.094;2023-08-06T11:33:57;4.28;;;3.50;;
19127;SDS011;9696;53.686;10.094;2023-08-06T11:36:29;8.82;;;4.20;;
19127;SDS011;9696;53.686;10.094;2023-08-06T11:38:59;5.38;;;3.90;;
19127;SDS011;9696;53.686;10.094;2023-08-06T11:41:29;5.95;;;3.65;;
19127;SDS011;9696;53.686;10.094;2023-08-06T11:43:59;7.55;;;4.25;;
19127;SDS011;9696;53.686;10.094;2023-08-06T11:46:28;6.40;;;3.67;;
19127;SDS011;9696;53.686;10.094;2023-08-06T11:49:18;5.47;;;3.25;;
19127;SDS011;9696;53.686;10.094;2023-08-06T11:51:48;5.32;;;3.67;;
19127;SDS011;9696;53.686;10.094;2023-08-06T11:54:30;7.03;;;3.50;;
19127;SDS011;9696;53.686;10.094;2023-08-06T11:57:01;3.83;;;2.70;;
19127;SDS011;9696;53.686;10.094;2023-08-06T11:59:30;6.72;;;3.55;;
19127;SDS011;9696;53.686;10.094;2023-08-06T12:02:01;6.97;;;3.75;;
19127;SDS011;9696;53.686;10.094;2023-08-06T12:04:37;4.65;;;3.58;;
19127;SDS011;9696;53.686;10.094;2023-08-06T12:09:57;6.45;;;3.30;;
19127;SDS011;9696;53.686;10.094;2023-08-06T12:12:27;9.68;;;3.20;;
19127;SDS011;9696;53.686;10.094;2023-08-06T12:14:56;5.65;;;3.47;;
19127;SDS011;9696;53.686;10.094;2023-08-06T12:17:29;4.70;;;2.92;;
19127;SDS011;9696;53.686;10.094;2023-08-06T12:19:59;8.40;;;3.38;;
19127;SDS011;9696;53.686;10.094;2023-08-06T12:22:29;4.90;;;3.20;;
19127;SDS011;9696;53.686;10.094;2023-08-06T12:25:01;5.90;;;3.47;;
19127;SDS011;9696;53.686;10.094;2023-08-06T12:27:33;7.20;;;4.05;;
19127;SDS011;9696;53.686;10.094;2023-08-06T12:30:03;4.07;;;3.38;;
19127;SDS011;9696;53.686;10.094;2023-08-06T12:32:33;8.82;;;3.50;;
19127;SDS011;9696;53.686;10.094;2023-08-06T12:35:04;6.60;;;3.17;;
19127;SDS011;9696;53.686;10.094;2023-08-06T12:37:35;5.50;;;3.38;;
19127;SDS011;9696;53.686;10.094;2023-08-06T12:40:06;8.23;;;3.50;;
19127;SDS011;9696;53.686;10.094;2023-08-06T12:42:55;5.18;;;3.45;;
19127;SDS011;9696;53.686;10.094;2023-08-06T12:45:25;8.48;;;2.90;;
19127;SDS011;9696;53.686;10.094;2023-08-06T12:47:54;5.03;;;3.20;;
19127;SDS011;9696;53.686;10.094;2023-08-06T12:50:25;5.93;;;2.83;;
19127;SDS011;9696;53.686;10.094;2023-08-06T12:52:57;7.38;;;2.40;;
19127;SDS011;9696;53.686;10.094;2023-08-06T12:55:27;4.90;;;2.50;;
19127;SDS011;9696;53.686;10.094;2023-08-06T12:57:59;7.43;;;2.78;;
19127;SDS011;9696;53.686;10.094;2023-08-06T13:00:30;6.65;;;2.35;;
19127;SDS011;9696;53.686;10.094;2023-08-06T13:03:01;6.05;;;2.42;;
19127;SDS011;9696;53.686;10.094;2023-08-06T13:05:32;4.72;;;2.25;;
19127;SDS011;9696;53.686;10.094;2023-08-06T13:08:01;4.15;;;1.98;;
19127;SDS011;9696;53.686;10.094;2023-08-06T13:10:30;3.88;;;1.80;;
19127;SDS011;9696;53.686;10.094;2023-08-06T13:12:59;2.83;;;1.77;;
19127;SDS011;9696;53.686;10.094;2023-08-06T13:15:28;5.07;;;1.85;;
19127;SDS011;9696;53.686;10.094;2023-08-06T13:17:57;7.50;;;1.92;;
19127;SDS011;9696;53.686;10.094;2023-08-06T13:20:27;5.57;;;1.85;;
19127;SDS011;9696;53.686;10.094;2023-08-06T13:22:59;6.25;;;1.88;;
19127;SDS011;9696;53.686;10.094;2023-08-06T13:25:28;2.65;;;1.58;;
19127;SDS011;9696;53.686;10.094;2023-08-06T13:28:03;2.33;;;2.00;;
19127;SDS011;9696;53.686;10.094;2023-08-06T13:30:32;5.47;;;1.83;;
19127;SDS011;9696;53.686;10.094;2023-08-06T13:33:08;5.20;;;1.92;;
19127;SDS011;9696;53.686;10.094;2023-08-06T13:35:38;6.05;;;1.85;;
19127;SDS011;9696;53.686;10.094;2023-08-06T13:38:08;6.22;;;1.90;;
19127;SDS011;9696;53.686;10.094;2023-08-06T13:40:37;11.95;;;1.90;;
19127;SDS011;9696;53.686;10.094;2023-08-06T13:43:07;3.95;;;1.35;;
19127;SDS011;9696;53.686;10.094;2023-08-06T13:45:36;5.07;;;1.75;;
19127;SDS011;9696;53.686;10.094;2023-08-06T13:48:05;2.08;;;1.48;;
19127;SDS011;9696;53.686;10.094;2023-08-06T13:50:35;1.63;;;1.25;;
19127;SDS011;9696;53.686;10.094;2023-08-06T13:53:08;5.53;;;1.65;;
19127;SDS011;9696;53.686;10.094;2023-08-06T13:55:37;3.20;;;1.40;;
19127;SDS011;9696;53.686;10.094;2023-08-06T13:58:06;3.10;;;1.52;;
19127;SDS011;9696;53.686;10.094;2023-08-06T14:00:36;5.63;;;1.98;;
19127;SDS011;9696;53.686;10.094;2023-08-06T14:03:05;4.70;;;1.77;;
19127;SDS011;9696;53.686;10.094;2023-08-06T14:05:35;4.68;;;1.90;;
19127;SDS011;9696;53.686;10.094;2023-08-06T14:08:04;4.28;;;1.40;;
19127;SDS011;9696;53.686;10.094;2023-08-06T14:10:35;5.50;;;1.65;;
19127;SDS011;9696;53.686;10.094;2023-08-06T14:13:04;6.68;;;1.45;;
19127;SDS011;9696;53.686;10.094;2023-08-06T14:15:37;1.50;;;1.20;;
19127;SDS011;9696;53.686;10.094;2023-08-06T14:18:07;2.33;;;1.40;;
19127;SDS011;9696;53.686;10.094;2023-08-06T14:20:36;3.25;;;1.52;;
19127;SDS011;9696;53.686;10.094;2023-08-06T14:23:05;3.72;;;1.33;;
19127;SDS011;9696;53.686;10.094;2023-08-06T14:25:36;2.20;;;1.40;;
19127;SDS011;9696;53.686;10.094;2023-08-06T14:28:06;7.55;;;1.35;;
19127;SDS011;9696;53.686;10.094;2023-08-06T14:30:36;2.05;;;1.27;;
19127;SDS011;9696;53.686;10.094;2023-08-06T14:33:05;2.75;;;1.30;;
19127;SDS011;9696;53.686;10.094;2023-08-06T14:35:53;4.63;;;1.27;;
19127;SDS011;9696;53.686;10.094;2023-08-06T14:38:22;4.07;;;1.30;;
19127;SDS011;9696;53.686;10.094;2023-08-06T14:40:52;1.83;;;1.10;;
19127;SDS011;9696;53.686;10.094;2023-08-06T14:43:21;2.05;;;1.10;;
19127;SDS011;9696;53.686;10.094;2023-08-06T14:45:51;3.50;;;1.70;;
19127;SDS011;9696;53.686;10.094;2023-08-06T14:48:23;4.47;;;1.23;;
19127;SDS011;9696;53.686;10.094;2023-08-06T14:50:53;4.18;;;1.38;;
19127;SDS011;9696;53.686;10.094;2023-08-06T14:53:23;1.58;;;1.00;;
19127;SDS011;9696;53.686;10.094;2023-08-06T14:55:54;1.20;;;1.00;;
19127;SDS011;9696;53.686;10.094;2023-08-06T14:58:23;3.20;;;1.38;;
19127;SDS011;9696;53.686;10.094;2023-08-06T15:00:52;2.90;;;1.33;;
19127;SDS011;9696;53.686;10.094;2023-08-06T15:03:22;2.85;;;1.25;;
19127;SDS011;9696;53.686;10.094;2023-08-06T15:05:53;3.05;;;1.13;;
19127;SDS011;9696;53.686;10.094;2023-08-06T15:08:23;3.38;;;0.98;;
19127;SDS011;9696;53.686;10.094;2023-08-06T15:10:53;2.90;;;1.27;;
19127;SDS011;9696;53.686;10.094;2023-08-06T15:13:22;3.45;;;0.80;;
19127;SDS011;9696;53.686;10.094;2023-08-06T15:15:51;1.55;;;1.00;;
19127;SDS011;9696;53.686;10.094;2023-08-06T15:18:21;3.20;;;1.02;;
19127;SDS011;9696;53.686;10.094;2023-08-06T15:20:50;1.42;;;1.05;;
19127;SDS011;9696;53.686;10.094;2023-08-06T15:23:19;3.33;;;1.35;;